sensor_id;sensor_type;location;lat;lon;timestamp;pressure;altitude;pressure_sealevel;temperature;humidity
64064;BME280;50314;50.618;10.642;2023-02-12T00:01:02;98546.84;;;13.69;23.47
64064;BME280;50314;50.618;10.642;2023-02-12T00:03:31;98547.69;;;13.69;23.22
64064;BME280;50314;50.618;10.642;2023-02-12T00:05:59;98549.56;;;13.67;23.22
64064;BME280;50314;50.618;10.642;2023-02-12T00:08:25;98551.34;;;13.67;23.34
64064;BME280;50314;50.618;10.642;2023-02-12T00:10:50;98548.69;;;13.67;23.46
64064;BME280;50314;50.618;10.642;2023-02-12T00:13:16;98547.00;;;13.66;23.43
64064;BME280;50314;50.618;10.642;2023-02-12T00:15:41;98540.75;;;13.67;23.19
64064;BME280;50314;50.618;10.642;2023-02-12T00:18:07;98537.38;;;13.65;23.23
64064;BME280;50314;50.618;10.642;2023-02-12T00:20:33;98535.63;;;13.63;23.18
64064;BME280;50314;50.618;10.642;2023-02-12T00:22:59;98536.50;;;13.64;23.37
64064;BME280;50314;50.618;10.642;2023-02-12T00:25:24;98540.94;;;13.63;23.52
64064;BME280;50314;50.618;10.642;2023-02-12T00:27:49;98545.38;;;13.63;23.33
64064;BME280;50314;50.618;10.642;2023-02-12T00:30:15;98544.44;;;13.64;23.21
64064;BME280;50314;50.618;10.642;2023-02-12T00:32:41;98540.94;;;13.63;23.57
64064;BME280;50314;50.618;10.642;2023-02-12T00:35:06;98546.34;;;13.62;23.34
64064;BME280;50314;50.618;10.642;2023-02-12T00:37:32;98541.03;;;13.62;23.33
64064;BME280;50314;50.618;10.642;2023-02-12T00:39:57;98534.00;;;13.61;23.49
64064;BME280;50314;50.618;10.642;2023-02-12T00:42:23;98546.41;;;13.60;23.21
64064;BME280;50314;50.618;10.642;2023-02-12T00:44:48;98545.47;;;13.61;23.16
64064;BME280;50314;50.618;10.642;2023-02-12T00:47:13;98541.09;;;13.60;23.45
64064;BME280;50314;50.618;10.642;2023-02-12T00:49:41;98543.84;;;13.59;23.34
64064;BME280;50314;50.618;10.642;2023-02-12T00:52:07;98547.34;;;13.59;23.47
64064;BME280;50314;50.618;10.642;2023-02-12T00:54:32;98545.66;;;13.58;23.18
64064;BME280;50314;50.618;10.642;2023-02-12T00:56:58;98543.94;;;13.57;23.54
64064;BME280;50314;50.618;10.642;2023-02-12T00:59:24;98542.22;;;13.56;23.24
64064;BME280;50314;50.618;10.642;2023-02-12T01:01:51;98543.06;;;13.57;23.27
64064;BME280;50314;50.618;10.642;2023-02-12T01:04:18;98531.63;;;13.56;23.63
64064;BME280;50314;50.618;10.642;2023-02-12T01:06:43;98531.63;;;13.56;23.30
64064;BME280;50314;50.618;10.642;2023-02-12T01:09:09;98531.63;;;13.56;23.48
64064;BME280;50314;50.618;10.642;2023-02-12T01:11:35;98524.53;;;13.57;23.32
64064;BME280;50314;50.618;10.642;2023-02-12T01:14:00;98529.94;;;13.55;23.49
64064;BME280;50314;50.618;10.642;2023-02-12T01:16:26;98531.63;;;13.56;23.17
64064;BME280;50314;50.618;10.642;2023-02-12T01:18:52;98530.84;;;13.54;23.18
64064;BME280;50314;50.618;10.642;2023-02-12T01:21:21;98534.38;;;13.55;23.46
64064;BME280;50314;50.618;10.642;2023-02-12T01:23:47;98538.72;;;13.56;23.39
64064;BME280;50314;50.618;10.642;2023-02-12T01:26:14;98528.16;;;13.56;23.25
64064;BME280;50314;50.618;10.642;2023-02-12T01:28:43;98535.25;;;13.55;23.42
64064;BME280;50314;50.618;10.642;2023-02-12T01:31:13;98538.81;;;13.54;23.23
64064;BME280;50314;50.618;10.642;2023-02-12T01:33:40;98528.22;;;13.54;23.44
64064;BME280;50314;50.618;10.642;2023-02-12T01:36:06;98539.69;;;13.55;23.27
64064;BME280;50314;50.618;10.642;2023-02-12T01:38:31;98534.47;;;13.53;23.26
64064;BME280;50314;50.618;10.642;2023-02-12T01:41:13;98528.59;;;13.48;23.44
64064;BME280;50314;50.618;10.642;2023-02-12T01:43:39;98534.63;;;13.50;23.19
64064;BME280;50314;50.618;10.642;2023-02-12T01:46:06;98521.41;;;13.50;23.40
64064;BME280;50314;50.618;10.642;2023-02-12T01:48:39;98531.25;;;13.48;23.39
64064;BME280;50314;50.618;10.642;2023-02-12T01:51:06;98535.47;;;13.51;23.11
64064;BME280;50314;50.618;10.642;2023-02-12T01:54:00;98533.22;;;13.45;23.53
64064;BME280;50314;50.618;10.642;2023-02-12T01:56:27;98533.78;;;13.50;23.40
64064;BME280;50314;50.618;10.642;2023-02-12T01:58:54;98528.50;;;13.50;23.13
64064;BME280;50314;50.618;10.642;2023-02-12T02:01:24;98533.03;;;13.48;23.13
64064;BME280;50314;50.618;10.642;2023-02-12T02:03:54;98530.38;;;13.48;23.27
64064;BME280;50314;50.618;10.642;2023-02-12T02:06:25;98537.44;;;13.47;23.20
64064;BME280;50314;50.618;10.642;2023-02-12T02:08:53;98532.16;;;13.47;23.24
64064;BME280;50314;50.618;10.642;2023-02-12T02:11:19;98528.59;;;13.48;23.08
64064;BME280;50314;50.618;10.642;2023-02-12T02:14:03;98534.91;;;13.46;23.27
64064;BME280;50314;50.618;10.642;2023-02-12T02:22:34;98525.69;;;13.37;23.48
64064;BME280;50314;50.618;10.642;2023-02-12T02:27:40;98520.38;;;13.37;23.25
64064;BME280;50314;50.618;10.642;2023-02-12T02:30:21;98515.94;;;13.37;23.22
64064;BME280;50314;50.618;10.642;2023-02-12T02:33:23;98512.63;;;13.34;23.23
64064;BME280;50314;50.618;10.642;2023-02-12T02:38:43;98503.81;;;13.33;23.53
64064;BME280;50314;50.618;10.642;2023-02-12T02:41:24;98507.31;;;13.34;23.25
64064;BME280;50314;50.618;10.642;2023-02-12T02:43:53;98503.66;;;13.36;23.21
64064;BME280;50314;50.618;10.642;2023-02-12T02:46:26;98506.31;;;13.36;23.42
64064;BME280;50314;50.618;10.642;2023-02-12T02:49:01;98508.09;;;13.36;23.52
64064;BME280;50314;50.618;10.642;2023-02-12T02:51:40;98500.25;;;13.34;23.50
64064;BME280;50314;50.618;10.642;2023-02-12T02:54:12;98505.34;;;13.37;23.54
64064;BME280;50314;50.618;10.642;2023-02-12T02:56:42;98502.63;;;13.39;23.42
64064;BME280;50314;50.618;10.642;2023-02-12T02:59:27;98506.31;;;13.36;23.32
64064;BME280;50314;50.618;10.642;2023-02-12T03:02:05;98507.25;;;13.35;23.35
64064;BME280;50314;50.618;10.642;2023-02-12T03:05:12;98510.91;;;13.33;23.24
64064;BME280;50314;50.618;10.642;2023-02-12T03:08:04;98503.94;;;13.32;23.26
64064;BME280;50314;50.618;10.642;2023-02-12T03:10:36;98505.34;;;13.37;23.45
64064;BME280;50314;50.618;10.642;2023-02-12T03:13:11;98503.59;;;13.38;23.48
64064;BME280;50314;50.618;10.642;2023-02-12T03:18:37;98493.84;;;13.38;23.38
64064;BME280;50314;50.618;10.642;2023-02-12T03:21:13;98494.69;;;13.39;23.20
64064;BME280;50314;50.618;10.642;2023-02-12T03:23:51;98495.66;;;13.38;23.30
64064;BME280;50314;50.618;10.642;2023-02-12T03:26:27;98499.03;;;13.40;23.42
64064;BME280;50314;50.618;10.642;2023-02-12T03:28:55;98491.88;;;13.42;23.36
64064;BME280;50314;50.618;10.642;2023-02-12T03:31:27;98491.88;;;13.42;23.25
64064;BME280;50314;50.618;10.642;2023-02-12T03:34:12;98499.03;;;13.40;23.36
64064;BME280;50314;50.618;10.642;2023-02-12T03:36:48;98492.81;;;13.41;23.15
64064;BME280;50314;50.618;10.642;2023-02-12T03:45:08;98499.03;;;13.40;23.46
64064;BME280;50314;50.618;10.642;2023-02-12T03:47:37;98494.41;;;13.44;23.36
64064;BME280;50314;50.618;10.642;2023-02-12T03:52:37;98494.34;;;13.45;23.44
64064;BME280;50314;50.618;10.642;2023-02-12T03:55:03;98501.44;;;13.45;23.17
64064;BME280;50314;50.618;10.642;2023-02-12T03:57:33;98504.16;;;13.43;23.33
64064;BME280;50314;50.618;10.642;2023-02-12T04:00:05;98503.22;;;13.44;23.38
64064;BME280;50314;50.618;10.642;2023-02-12T04:02:32;98505.84;;;13.44;23.28
64064;BME280;50314;50.618;10.642;2023-02-12T04:05:04;98510.31;;;13.44;23.39
64064;BME280;50314;50.618;10.642;2023-02-12T04:07:30;98515.41;;;13.47;23.25
64064;BME280;50314;50.618;10.642;2023-02-12T04:09:55;98512.72;;;13.48;23.09
64064;BME280;50314;50.618;10.642;2023-02-12T04:12:32;98511.16;;;13.44;23.22
64064;BME280;50314;50.618;10.642;2023-02-12T04:15:25;98513.06;;;13.42;23.41
64064;BME280;50314;50.618;10.642;2023-02-12T04:18:28;98514.91;;;13.40;23.22
64064;BME280;50314;50.618;10.642;2023-02-12T04:20:58;98523.53;;;13.44;23.48
64064;BME280;50314;50.618;10.642;2023-02-12T04:26:36;98527.41;;;13.38;23.50
64064;BME280;50314;50.618;10.642;2023-02-12T04:29:35;98532.69;;;13.38;23.20
64064;BME280;50314;50.618;10.642;2023-02-12T04:38:13;98523.13;;;13.35;23.51
64064;BME280;50314;50.618;10.642;2023-02-12T04:40:41;98521.94;;;13.41;23.39
64064;BME280;50314;50.618;10.642;2023-02-12T04:43:08;98526.28;;;13.42;23.58
64064;BME280;50314;50.618;10.642;2023-02-12T04:45:34;98525.25;;;13.45;23.36
64064;BME280;50314;50.618;10.642;2023-02-12T04:48:00;98531.31;;;13.47;23.53
64064;BME280;50314;50.618;10.642;2023-02-12T04:50:39;98531.41;;;13.45;23.21
64064;BME280;50314;50.618;10.642;2023-02-12T04:53:05;98539.19;;;13.48;23.44
64064;BME280;50314;50.618;10.642;2023-02-12T04:55:30;98533.03;;;13.48;23.30
64064;BME280;50314;50.618;10.642;2023-02-12T04:57:56;98535.69;;;13.48;23.45
64064;BME280;50314;50.618;10.642;2023-02-12T05:00:21;98533.88;;;13.48;23.16
64064;BME280;50314;50.618;10.642;2023-02-12T05:02:46;98535.59;;;13.49;23.20
64064;BME280;50314;50.618;10.642;2023-02-12T05:05:12;98531.25;;;13.48;23.44
64064;BME280;50314;50.618;10.642;2023-02-12T05:07:37;98537.28;;;13.50;23.41
64064;BME280;50314;50.618;10.642;2023-02-12T05:10:03;98539.94;;;13.50;23.30
64064;BME280;50314;50.618;10.642;2023-02-12T05:12:29;98539.06;;;13.50;23.41
64064;BME280;50314;50.618;10.642;2023-02-12T05:14:54;98540.88;;;13.49;23.18
64064;BME280;50314;50.618;10.642;2023-02-12T05:17:23;98536.53;;;13.48;23.19
64064;BME280;50314;50.618;10.642;2023-02-12T05:19:49;98532.94;;;13.49;23.25
64064;BME280;50314;50.618;10.642;2023-02-12T05:22:14;98544.31;;;13.51;23.28
64064;BME280;50314;50.618;10.642;2023-02-12T05:24:40;98548.72;;;13.51;23.40
64064;BME280;50314;50.618;10.642;2023-02-12T05:27:05;98547.88;;;13.50;23.33
64064;BME280;50314;50.618;10.642;2023-02-12T05:29:33;98541.66;;;13.51;23.21
64064;BME280;50314;50.618;10.642;2023-02-12T05:31:58;98545.22;;;13.50;23.33
64064;BME280;50314;50.618;10.642;2023-02-12T05:34:24;98551.47;;;13.49;23.34
64064;BME280;50314;50.618;10.642;2023-02-12T05:36:49;98555.91;;;13.49;23.33
64064;BME280;50314;50.618;10.642;2023-02-12T05:39:15;98549.75;;;13.48;23.60
64064;BME280;50314;50.618;10.642;2023-02-12T05:41:41;98554.22;;;13.48;23.51
64064;BME280;50314;50.618;10.642;2023-02-12T05:44:06;98556.75;;;13.49;23.51
64064;BME280;50314;50.618;10.642;2023-02-12T05:46:32;98549.75;;;13.48;23.36
64064;BME280;50314;50.618;10.642;2023-02-12T05:48:58;98557.72;;;13.48;23.38
64064;BME280;50314;50.618;10.642;2023-02-12T05:51:25;98557.72;;;13.48;23.50
64064;BME280;50314;50.618;10.642;2023-02-12T05:53:54;98559.41;;;13.49;23.36
64064;BME280;50314;50.618;10.642;2023-02-12T05:56:23;98562.06;;;13.49;23.25
64064;BME280;50314;50.618;10.642;2023-02-12T05:59:12;98567.50;;;13.46;23.43
64064;BME280;50314;50.618;10.642;2023-02-12T06:01:41;98568.19;;;13.50;23.46
64064;BME280;50314;50.618;10.642;2023-02-12T06:04:09;98570.78;;;13.51;23.34
64064;BME280;50314;50.618;10.642;2023-02-12T06:06:37;98573.41;;;13.51;23.18
64064;BME280;50314;50.618;10.642;2023-02-12T06:09:07;98573.41;;;13.51;23.50
64064;BME280;50314;50.618;10.642;2023-02-12T06:11:32;98582.09;;;13.53;23.50
64064;BME280;50314;50.618;10.642;2023-02-12T06:14:01;98583.06;;;13.52;23.39
64064;BME280;50314;50.618;10.642;2023-02-12T06:16:27;98583.91;;;13.53;23.44
64064;BME280;50314;50.618;10.642;2023-02-12T06:18:54;98589.09;;;13.54;23.11
64064;BME280;50314;50.618;10.642;2023-02-12T06:21:21;98584.75;;;13.53;23.45
64064;BME280;50314;50.618;10.642;2023-02-12T06:23:48;98582.97;;;13.54;23.32
64064;BME280;50314;50.618;10.642;2023-02-12T06:26:14;98584.75;;;13.53;23.19
64064;BME280;50314;50.618;10.642;2023-02-12T06:28:40;98580.41;;;13.52;23.53
64064;BME280;50314;50.618;10.642;2023-02-12T06:31:17;98594.66;;;13.50;23.19
64064;BME280;50314;50.618;10.642;2023-02-12T06:33:43;98600.63;;;13.53;23.28
64064;BME280;50314;50.618;10.642;2023-02-12T06:36:08;98594.41;;;13.54;23.54
64064;BME280;50314;50.618;10.642;2023-02-12T06:38:34;98606.72;;;13.55;23.33
64064;BME280;50314;50.618;10.642;2023-02-12T06:41:03;98607.72;;;13.53;23.40
64064;BME280;50314;50.618;10.642;2023-02-12T06:43:28;98610.28;;;13.54;23.22
64064;BME280;50314;50.618;10.642;2023-02-12T06:45:54;98612.94;;;13.54;23.45
64064;BME280;50314;50.618;10.642;2023-02-12T06:48:19;98612.94;;;13.54;23.49
64064;BME280;50314;50.618;10.642;2023-02-12T06:50:45;98613.81;;;13.55;23.25
64064;BME280;50314;50.618;10.642;2023-02-12T06:53:10;98624.41;;;13.55;23.57
64064;BME280;50314;50.618;10.642;2023-02-12T06:55:36;98621.75;;;13.55;23.24
64064;BME280;50314;50.618;10.642;2023-02-12T06:58:01;98617.31;;;13.55;23.52
64064;BME280;50314;50.618;10.642;2023-02-12T07:00:27;98619.94;;;13.55;23.31
64064;BME280;50314;50.618;10.642;2023-02-12T07:02:54;98629.69;;;13.55;23.39
64064;BME280;50314;50.618;10.642;2023-02-12T07:05:20;98633.94;;;13.57;23.55
64064;BME280;50314;50.618;10.642;2023-02-12T07:07:46;98636.59;;;13.57;23.45
64064;BME280;50314;50.618;10.642;2023-02-12T07:10:11;98635.66;;;13.58;23.74
64064;BME280;50314;50.618;10.642;2023-02-12T07:12:36;98634.81;;;13.58;23.83
64064;BME280;50314;50.618;10.642;2023-02-12T07:15:02;98640.00;;;13.59;23.51
64064;BME280;50314;50.618;10.642;2023-02-12T07:17:29;98639.16;;;13.59;23.65
64064;BME280;50314;50.618;10.642;2023-02-12T07:19:55;98642.66;;;13.59;23.75
64064;BME280;50314;50.618;10.642;2023-02-12T07:22:21;98648.81;;;13.60;23.50
64064;BME280;50314;50.618;10.642;2023-02-12T07:24:46;98646.16;;;13.60;23.50
64064;BME280;50314;50.618;10.642;2023-02-12T07:27:12;98644.38;;;13.60;23.58
64064;BME280;50314;50.618;10.642;2023-02-12T07:29:38;98649.59;;;13.62;23.55
64064;BME280;50314;50.618;10.642;2023-02-12T07:32:03;98648.75;;;13.61;23.92
64064;BME280;50314;50.618;10.642;2023-02-12T07:34:29;98653.94;;;13.63;23.80
64064;BME280;50314;50.618;10.642;2023-02-12T07:36:54;98651.22;;;13.65;24.03
64064;BME280;50314;50.618;10.642;2023-02-12T07:39:20;98655.56;;;13.66;23.86
64064;BME280;50314;50.618;10.642;2023-02-12T07:41:45;98657.25;;;13.67;24.18
64064;BME280;50314;50.618;10.642;2023-02-12T07:44:11;98658.06;;;13.69;24.06
64064;BME280;50314;50.618;10.642;2023-02-12T07:46:44;98659.91;;;13.67;23.94
64064;BME280;50314;50.618;10.642;2023-02-12T07:49:16;98659.06;;;13.66;24.14
64064;BME280;50314;50.618;10.642;2023-02-12T07:51:42;98664.19;;;13.69;24.11
64064;BME280;50314;50.618;10.642;2023-02-12T07:54:09;98663.25;;;13.70;24.10
64064;BME280;50314;50.618;10.642;2023-02-12T07:56:35;98671.97;;;13.72;24.13
64064;BME280;50314;50.618;10.642;2023-02-12T07:59:13;98667.59;;;13.71;24.06
64064;BME280;50314;50.618;10.642;2023-02-12T08:01:47;98676.31;;;13.73;23.84
64064;BME280;50314;50.618;10.642;2023-02-12T08:04:15;98678.00;;;13.74;24.03
64064;BME280;50314;50.618;10.642;2023-02-12T08:06:46;98678.91;;;13.75;24.09
64064;BME280;50314;50.618;10.642;2023-02-12T08:09:17;98673.50;;;13.76;23.84
64064;BME280;50314;50.618;10.642;2023-02-12T08:11:43;98675.13;;;13.79;24.05
64064;BME280;50314;50.618;10.642;2023-02-12T08:14:11;98668.88;;;13.80;23.85
64064;BME280;50314;50.618;10.642;2023-02-12T08:16:38;98672.31;;;13.82;23.93
64064;BME280;50314;50.618;10.642;2023-02-12T08:19:04;98678.47;;;13.82;24.17
64064;BME280;50314;50.618;10.642;2023-02-12T08:21:29;98679.31;;;13.83;23.87
64064;BME280;50314;50.618;10.642;2023-02-12T08:23:56;98678.34;;;13.84;23.91
64064;BME280;50314;50.618;10.642;2023-02-12T08:26:33;98682.81;;;13.83;23.96
64064;BME280;50314;50.618;10.642;2023-02-12T08:29:06;98683.66;;;13.84;24.01
64064;BME280;50314;50.618;10.642;2023-02-12T08:31:35;98689.75;;;13.86;24.04
64064;BME280;50314;50.618;10.642;2023-02-12T08:34:01;98693.13;;;13.88;23.88
64064;BME280;50314;50.618;10.642;2023-02-12T08:36:35;98690.50;;;13.88;23.93
64064;BME280;50314;50.618;10.642;2023-02-12T08:39:00;98693.06;;;13.90;24.27
64064;BME280;50314;50.618;10.642;2023-02-12T08:41:27;98692.13;;;13.91;24.21
64064;BME280;50314;50.618;10.642;2023-02-12T08:43:56;98697.34;;;13.92;23.96
64064;BME280;50314;50.618;10.642;2023-02-12T08:46:24;98700.00;;;13.92;24.16
64064;BME280;50314;50.618;10.642;2023-02-12T08:48:58;98692.97;;;13.91;24.33
64064;BME280;50314;50.618;10.642;2023-02-12T08:51:27;98700.78;;;13.94;24.53
64064;BME280;50314;50.618;10.642;2023-02-12T08:53:58;98697.88;;;13.99;24.61
64064;BME280;50314;50.618;10.642;2023-02-12T08:56:24;98708.72;;;14.10;24.46
64064;BME280;50314;50.618;10.642;2023-02-12T08:58:51;98703.75;;;14.20;24.53
64064;BME280;50314;50.618;10.642;2023-02-12T09:01:21;98706.63;;;14.31;24.78
64064;BME280;50314;50.618;10.642;2023-02-12T09:03:48;98701.38;;;14.45;24.96
64064;BME280;50314;50.618;10.642;2023-02-12T09:06:15;98698.81;;;14.60;24.76
64064;BME280;50314;50.618;10.642;2023-02-12T09:08:41;98705.03;;;14.74;24.95
64064;BME280;50314;50.618;10.642;2023-02-12T09:11:09;98718.31;;;14.89;25.00
64064;BME280;50314;50.618;10.642;2023-02-12T09:13:35;98701.66;;;15.01;24.92
64064;BME280;50314;50.618;10.642;2023-02-12T09:16:02;98715.91;;;15.14;24.92
64064;BME280;50314;50.618;10.642;2023-02-12T09:18:29;98714.09;;;15.29;25.03
64064;BME280;50314;50.618;10.642;2023-02-12T09:20:59;98710.44;;;15.46;25.20
64064;BME280;50314;50.618;10.642;2023-02-12T09:23:25;98711.97;;;15.64;25.14
64064;BME280;50314;50.618;10.642;2023-02-12T09:25:50;98719.59;;;15.83;25.04
64064;BME280;50314;50.618;10.642;2023-02-12T09:28:16;98713.97;;;16.02;25.08
64064;BME280;50314;50.618;10.642;2023-02-12T09:30:41;98711.09;;;16.19;24.99
64064;BME280;50314;50.618;10.642;2023-02-12T09:33:10;98716.06;;;16.38;24.92
64064;BME280;50314;50.618;10.642;2023-02-12T09:35:37;98717.69;;;16.54;24.87
64064;BME280;50314;50.618;10.642;2023-02-12T09:38:03;98712.81;;;16.60;24.84
64064;BME280;50314;50.618;10.642;2023-02-12T09:40:48;98723.97;;;16.80;24.75
64064;BME280;50314;50.618;10.642;2023-02-12T09:43:35;98721.13;;;16.96;24.97
64064;BME280;50314;50.618;10.642;2023-02-12T09:51:37;98724.09;;;17.42;24.61
64064;BME280;50314;50.618;10.642;2023-02-12T09:54:13;98726.06;;;17.53;24.18
64064;BME280;50314;50.618;10.642;2023-02-12T09:56:42;98731.97;;;17.69;24.31
64064;BME280;50314;50.618;10.642;2023-02-12T09:59:10;98726.63;;;17.82;23.87
64064;BME280;50314;50.618;10.642;2023-02-12T10:01:40;98717.41;;;17.99;23.99
64064;BME280;50314;50.618;10.642;2023-02-12T10:04:06;98719.09;;;18.13;23.95
64064;BME280;50314;50.618;10.642;2023-02-12T10:06:40;98720.97;;;18.23;23.72
64064;BME280;50314;50.618;10.642;2023-02-12T10:12:29;98731.94;;;18.55;23.79
64064;BME280;50314;50.618;10.642;2023-02-12T10:15:32;98730.41;;;18.64;23.32
64064;BME280;50314;50.618;10.642;2023-02-12T10:26:27;98729.50;;;19.12;22.94
64064;BME280;50314;50.618;10.642;2023-02-12T10:28:54;98739.19;;;19.24;23.03
64064;BME280;50314;50.618;10.642;2023-02-12T10:31:34;98739.56;;;19.31;22.61
64064;BME280;50314;50.618;10.642;2023-02-12T10:34:13;98732.47;;;19.42;22.99
64064;BME280;50314;50.618;10.642;2023-02-12T10:36:44;98732.97;;;19.59;22.69
64064;BME280;50314;50.618;10.642;2023-02-12T10:41:42;98723.59;;;19.87;22.63
64064;BME280;50314;50.618;10.642;2023-02-12T10:44:10;98725.03;;;20.02;22.37
64064;BME280;50314;50.618;10.642;2023-02-12T10:46:36;98724.91;;;20.15;22.60
64064;BME280;50314;50.618;10.642;2023-02-12T10:49:02;98723.16;;;20.25;22.14
64064;BME280;50314;50.618;10.642;2023-02-12T10:52:14;98724.00;;;20.37;22.29
64064;BME280;50314;50.618;10.642;2023-02-12T10:56:56;98716.09;;;20.56;22.15
64064;BME280;50314;50.618;10.642;2023-02-12T10:59:22;98710.88;;;20.66;22.08
64064;BME280;50314;50.618;10.642;2023-02-12T11:01:48;98702.22;;;20.74;21.92
64064;BME280;50314;50.618;10.642;2023-02-12T11:04:24;98703.38;;;20.81;21.58
64064;BME280;50314;50.618;10.642;2023-02-12T11:06:59;98694.94;;;20.85;21.42
64064;BME280;50314;50.618;10.642;2023-02-12T11:09:31;98705.00;;;20.93;21.41
64064;BME280;50314;50.618;10.642;2023-02-12T11:11:59;98698.03;;;21.02;21.71
64064;BME280;50314;50.618;10.642;2023-02-12T11:14:25;98701.75;;;21.10;21.53
64064;BME280;50314;50.618;10.642;2023-02-12T11:16:52;98698.19;;;21.21;21.78
64064;BME280;50314;50.618;10.642;2023-02-12T11:21:50;98687.00;;;21.47;21.65
64064;BME280;50314;50.618;10.642;2023-02-12T11:26:46;98683.97;;;21.71;21.42
64064;BME280;50314;50.618;10.642;2023-02-12T11:29:18;98676.16;;;21.79;21.19
64064;BME280;50314;50.618;10.642;2023-02-12T11:32:02;98667.56;;;21.85;21.05
64064;BME280;50314;50.618;10.642;2023-02-12T11:34:28;98671.66;;;21.99;21.08
64064;BME280;50314;50.618;10.642;2023-02-12T11:36:54;98668.44;;;22.05;21.22
64064;BME280;50314;50.618;10.642;2023-02-12T11:39:26;98668.69;;;22.12;20.92
64064;BME280;50314;50.618;10.642;2023-02-12T11:41:58;98666.63;;;22.15;21.28
64064;BME280;50314;50.618;10.642;2023-02-12T11:44:31;98666.91;;;22.22;20.71
64064;BME280;50314;50.618;10.642;2023-02-12T11:47:05;98670.00;;;22.27;20.97
64064;BME280;50314;50.618;10.642;2023-02-12T11:49:37;98667.88;;;22.31;20.72
64064;BME280;50314;50.618;10.642;2023-02-12T11:52:03;98667.47;;;22.35;20.72
64064;BME280;50314;50.618;10.642;2023-02-12T11:54:35;98667.34;;;22.37;20.61
64064;BME280;50314;50.618;10.642;2023-02-12T11:57:02;98666.91;;;22.41;20.83
64064;BME280;50314;50.618;10.642;2023-02-12T11:59:35;98672.28;;;22.41;20.60
64064;BME280;50314;50.618;10.642;2023-02-12T12:02:17;98669.88;;;22.38;20.55
64064;BME280;50314;50.618;10.642;2023-02-12T12:04:48;98661.25;;;22.44;20.03
64064;BME280;50314;50.618;10.642;2023-02-12T12:07:21;98665.78;;;22.44;20.16
64064;BME280;50314;50.618;10.642;2023-02-12T12:10:12;98659.03;;;22.40;19.89
64064;BME280;50314;50.618;10.642;2023-02-12T12:12:48;98657.03;;;22.42;20.13
64064;BME280;50314;50.618;10.642;2023-02-12T12:15:28;98660.44;;;22.44;20.11
64064;BME280;50314;50.618;10.642;2023-02-12T12:24:12;98664.78;;;22.35;19.92
64064;BME280;50314;50.618;10.642;2023-02-12T12:26:48;98666.88;;;22.32;20.19
64064;BME280;50314;50.618;10.642;2023-02-12T12:29:48;98665.63;;;22.26;20.02
64064;BME280;50314;50.618;10.642;2023-02-12T12:32:18;98666.03;;;22.31;19.76
64064;BME280;50314;50.618;10.642;2023-02-12T12:34:43;98661.78;;;22.28;19.96
64064;BME280;50314;50.618;10.642;2023-02-12T12:37:57;98659.81;;;22.21;19.59
64064;BME280;50314;50.618;10.642;2023-02-12T12:46:12;98655.59;;;22.09;19.80
64064;BME280;50314;50.618;10.642;2023-02-12T12:57:21;98650.31;;;21.88;19.39
64064;BME280;50314;50.618;10.642;2023-02-12T13:05:57;98650.84;;;21.72;19.31
64064;BME280;50314;50.618;10.642;2023-02-12T13:11:07;98653.25;;;21.75;19.54
64064;BME280;50314;50.618;10.642;2023-02-12T13:13:47;98652.13;;;21.77;19.77
64064;BME280;50314;50.618;10.642;2023-02-12T13:16:29;98650.28;;;21.78;20.01
64064;BME280;50314;50.618;10.642;2023-02-12T13:26:56;98645.69;;;21.99;20.07
64064;BME280;50314;50.618;10.642;2023-02-12T13:29:30;98651.63;;;22.03;19.88
64064;BME280;50314;50.618;10.642;2023-02-12T13:32:02;98645.69;;;22.09;19.70
64064;BME280;50314;50.618;10.642;2023-02-12T13:34:31;98649.91;;;22.12;19.80
64064;BME280;50314;50.618;10.642;2023-02-12T13:37:03;98657.69;;;22.15;18.94
64064;BME280;50314;50.618;10.642;2023-02-12T13:39:36;98646.00;;;22.16;19.24
64064;BME280;50314;50.618;10.642;2023-02-12T13:44:46;98655.00;;;22.24;19.63
64064;BME280;50314;50.618;10.642;2023-02-12T13:50:34;98655.78;;;22.36;19.60
64064;BME280;50314;50.618;10.642;2023-02-12T13:53:25;98654.91;;;22.45;19.80
64064;BME280;50314;50.618;10.642;2023-02-12T13:56:12;98652.78;;;22.59;19.60
64064;BME280;50314;50.618;10.642;2023-02-12T13:58:50;98660.13;;;22.76;20.10
64064;BME280;50314;50.618;10.642;2023-02-12T14:01:37;98656.16;;;22.90;20.13
64064;BME280;50314;50.618;10.642;2023-02-12T14:06:54;98652.34;;;23.30;19.59
64064;BME280;50314;50.618;10.642;2023-02-12T14:14:46;98645.97;;;23.68;19.32
64064;BME280;50314;50.618;10.642;2023-02-12T14:20:31;98659.47;;;23.86;19.68
64064;BME280;50314;50.618;10.642;2023-02-12T14:26:04;98654.00;;;24.05;19.50
64064;BME280;50314;50.618;10.642;2023-02-12T14:28:52;98647.47;;;24.08;18.95
64064;BME280;50314;50.618;10.642;2023-02-12T14:33:50;98645.91;;;24.23;19.26
64064;BME280;50314;50.618;10.642;2023-02-12T14:41:27;98643.75;;;24.27;18.52
64064;BME280;50314;50.618;10.642;2023-02-12T14:46:52;98645.00;;;24.32;18.67
64064;BME280;50314;50.618;10.642;2023-02-12T14:55:05;98642.44;;;24.31;18.22
64064;BME280;50314;50.618;10.642;2023-02-12T15:02:44;98639.13;;;24.37;18.16
64064;BME280;50314;50.618;10.642;2023-02-12T15:05:27;98637.28;;;24.37;18.25
64064;BME280;50314;50.618;10.642;2023-02-12T15:08:04;98642.91;;;24.44;18.35
64064;BME280;50314;50.618;10.642;2023-02-12T15:10:36;98636.63;;;24.53;18.59
64064;BME280;50314;50.618;10.642;2023-02-12T15:16:06;98634.84;;;24.62;17.55
64064;BME280;50314;50.618;10.642;2023-02-12T15:23:38;98638.59;;;24.69;17.99
64064;BME280;50314;50.618;10.642;2023-02-12T15:26:08;98641.50;;;24.76;18.05
64064;BME280;50314;50.618;10.642;2023-02-12T15:28:39;98642.19;;;24.78;17.73
64064;BME280;50314;50.618;10.642;2023-02-12T15:31:06;98642.03;;;24.79;18.00
64064;BME280;50314;50.618;10.642;2023-02-12T15:33:39;98641.03;;;24.80;17.78